sensor_id;sensor_type;location;lat;lon;timestamp;temperature;humidity
50947;DHT22;36955;47.416;7.716;2022-09-13T00:00:19;17.20;99.90
50947;DHT22;36955;47.416;7.716;2022-09-13T00:02:45;17.20;99.90
50947;DHT22;36955;47.416;7.716;2022-09-13T00:05:11;17.10;99.90
50947;DHT22;36955;47.416;7.716;2022-09-13T00:07:37;17.00;99.90
50947;DHT22;36955;47.416;7.716;2022-09-13T00:10:03;16.90;99.90
50947;DHT22;36955;47.416;7.716;2022-09-13T00:12:30;16.80;99.90
50947;DHT22;36955;47.416;7.716;2022-09-13T00:14:56;16.80;99.90
50947;DHT22;36955;47.416;7.716;2022-09-13T00:17:22;16.80;99.90
50947;DHT22;36955;47.416;7.716;2022-09-13T00:19:48;16.80;99.90
50947;DHT22;36955;47.416;7.716;2022-09-13T00:22:14;16.70;99.90
50947;DHT22;36955;47.416;7.716;2022-09-13T00:24:40;16.70;99.90
50947;DHT22;36955;47.416;7.716;2022-09-13T00:27:06;16.70;99.90
50947;DHT22;36955;47.416;7.716;2022-09-13T00:29:32;16.70;99.90
50947;DHT22;36955;47.416;7.716;2022-09-13T00:31:58;16.80;99.90
50947;DHT22;36955;47.416;7.716;2022-09-13T00:34:24;16.70;99.90
50947;DHT22;36955;47.416;7.716;2022-09-13T00:36:50;16.70;99.90
50947;DHT22;36955;47.416;7.716;2022-09-13T00:39:16;16.60;99.90
50947;DHT22;36955;47.416;7.716;2022-09-13T00:41:42;16.60;99.90
50947;DHT22;36955;47.416;7.716;2022-09-13T00:44:53;16.50;99.90
50947;DHT22;36955;47.416;7.716;2022-09-13T00:50:32;16.40;99.90
50947;DHT22;36955;47.416;7.716;2022-09-13T00:56:08;16.40;99.90
50947;DHT22;36955;47.416;7.716;2022-09-13T00:58:45;16.40;99.90
50947;DHT22;36955;47.416;7.716;2022-09-13T01:01:14;16.40;99.90
50947;DHT22;36955;47.416;7.716;2022-09-13T01:03:42;16.30;99.90
50947;DHT22;36955;47.416;7.716;2022-09-13T01:06:13;16.30;99.90
50947;DHT22;36955;47.416;7.716;2022-09-13T01:08:42;16.30;99.90
50947;DHT22;36955;47.416;7.716;2022-09-13T01:11:16;16.30;99.90
50947;DHT22;36955;47.416;7.716;2022-09-13T01:13:44;16.30;99.90
50947;DHT22;36955;47.416;7.716;2022-09-13T01:16:11;16.20;99.90
50947;DHT22;36955;47.416;7.716;2022-09-13T01:18:37;16.20;99.90
50947;DHT22;36955;47.416;7.716;2022-09-13T01:35:36;16.90;99.90
50947;DHT22;36955;47.416;7.716;2022-09-13T01:46:22;17.00;99.90
50947;DHT22;36955;47.416;7.716;2022-09-13T01:48:58;17.00;99.90
50947;DHT22;36955;47.416;7.716;2022-09-13T01:57:00;16.80;99.90
50947;DHT22;36955;47.416;7.716;2022-09-13T02:04:54;16.50;99.90
50947;DHT22;36955;47.416;7.716;2022-09-13T02:07:28;16.60;99.90
50947;DHT22;36955;47.416;7.716;2022-09-13T02:10:01;16.60;99.90
50947;DHT22;36955;47.416;7.716;2022-09-13T02:12:30;16.60;99.90
50947;DHT22;36955;47.416;7.716;2022-09-13T02:15:31;16.60;99.90
50947;DHT22;36955;47.416;7.716;2022-09-13T02:18:08;16.60;99.90
50947;DHT22;36955;47.416;7.716;2022-09-13T02:20:42;16.60;99.90
50947;DHT22;36955;47.416;7.716;2022-09-13T02:23:15;16.60;99.90
50947;DHT22;36955;47.416;7.716;2022-09-13T02:25:43;16.70;99.90
50947;DHT22;36955;47.416;7.716;2022-09-13T02:28:15;16.80;99.90
50947;DHT22;36955;47.416;7.716;2022-09-13T02:30:46;16.90;99.90
50947;DHT22;36955;47.416;7.716;2022-09-13T02:33:32;16.90;99.90
50947;DHT22;36955;47.416;7.716;2022-09-13T02:36:04;16.90;99.90
50947;DHT22;36955;47.416;7.716;2022-09-13T02:38:36;16.90;99.90
50947;DHT22;36955;47.416;7.716;2022-09-13T02:41:15;16.80;99.90
50947;DHT22;36955;47.416;7.716;2022-09-13T02:43:46;16.70;99.90
50947;DHT22;36955;47.416;7.716;2022-09-13T02:52:57;16.50;99.90
50947;DHT22;36955;47.416;7.716;2022-09-13T02:58:43;16.50;99.90
50947;DHT22;36955;47.416;7.716;2022-09-13T03:01:07;16.50;99.90
50947;DHT22;36955;47.416;7.716;2022-09-13T03:03:33;16.50;99.90
50947;DHT22;36955;47.416;7.716;2022-09-13T03:05:59;16.50;99.90
50947;DHT22;36955;47.416;7.716;2022-09-13T03:08:26;16.50;99.90
50947;DHT22;36955;47.416;7.716;2022-09-13T03:13:35;16.50;99.90
50947;DHT22;36955;47.416;7.716;2022-09-13T03:27:40;16.30;99.90
50947;DHT22;36955;47.416;7.716;2022-09-13T03:30:11;16.30;99.90
50947;DHT22;36955;47.416;7.716;2022-09-13T03:32:50;16.20;99.90
50947;DHT22;36955;47.416;7.716;2022-09-13T03:38:16;16.30;99.90
50947;DHT22;36955;47.416;7.716;2022-09-13T03:40:51;16.20;99.90
50947;DHT22;36955;47.416;7.716;2022-09-13T03:43:25;16.30;99.90
50947;DHT22;36955;47.416;7.716;2022-09-13T03:45:56;16.50;99.90
50947;DHT22;36955;47.416;7.716;2022-09-13T03:48:23;16.60;99.90
50947;DHT22;36955;47.416;7.716;2022-09-13T03:50:49;16.60;99.90
50947;DHT22;36955;47.416;7.716;2022-09-13T03:53:27;16.70;99.90
50947;DHT22;36955;47.416;7.716;2022-09-13T03:55:55;16.60;99.90
50947;DHT22;36955;47.416;7.716;2022-09-13T03:58:21;16.50;99.90
50947;DHT22;36955;47.416;7.716;2022-09-13T04:00:47;16.50;99.90
50947;DHT22;36955;47.416;7.716;2022-09-13T04:03:14;16.50;99.90
50947;DHT22;36955;47.416;7.716;2022-09-13T04:05:40;16.60;99.90
50947;DHT22;36955;47.416;7.716;2022-09-13T04:08:06;16.70;99.90
50947;DHT22;36955;47.416;7.716;2022-09-13T04:10:34;16.90;99.90
50947;DHT22;36955;47.416;7.716;2022-09-13T04:13:00;17.00;99.90
50947;DHT22;36955;47.416;7.716;2022-09-13T04:15:27;17.10;99.90
50947;DHT22;36955;47.416;7.716;2022-09-13T04:17:53;17.20;99.90
50947;DHT22;36955;47.416;7.716;2022-09-13T04:20:19;17.20;99.90
50947;DHT22;36955;47.416;7.716;2022-09-13T04:22:55;17.40;99.90
50947;DHT22;36955;47.416;7.716;2022-09-13T04:25:22;17.40;99.90
50947;DHT22;36955;47.416;7.716;2022-09-13T04:27:56;17.50;99.90
50947;DHT22;36955;47.416;7.716;2022-09-13T04:30:22;17.50;99.90
50947;DHT22;36955;47.416;7.716;2022-09-13T04:32:48;17.50;99.90
50947;DHT22;36955;47.416;7.716;2022-09-13T04:35:14;17.60;99.90
50947;DHT22;36955;47.416;7.716;2022-09-13T04:37:40;17.70;99.90
50947;DHT22;36955;47.416;7.716;2022-09-13T04:40:07;17.80;99.90
50947;DHT22;36955;47.416;7.716;2022-09-13T04:42:34;17.80;99.90
50947;DHT22;36955;47.416;7.716;2022-09-13T04:45:00;17.80;99.90
50947;DHT22;36955;47.416;7.716;2022-09-13T04:47:26;17.70;99.90
50947;DHT22;36955;47.416;7.716;2022-09-13T04:49:52;17.60;99.90
50947;DHT22;36955;47.416;7.716;2022-09-13T04:52:18;17.50;99.90
50947;DHT22;36955;47.416;7.716;2022-09-13T04:54:44;17.50;99.90
50947;DHT22;36955;47.416;7.716;2022-09-13T04:57:10;17.50;99.90
50947;DHT22;36955;47.416;7.716;2022-09-13T04:59:36;17.70;99.90
50947;DHT22;36955;47.416;7.716;2022-09-13T05:02:02;17.90;99.90
50947;DHT22;36955;47.416;7.716;2022-09-13T05:04:28;18.20;99.90
50947;DHT22;36955;47.416;7.716;2022-09-13T05:06:55;18.50;99.90
50947;DHT22;36955;47.416;7.716;2022-09-13T05:09:21;18.70;99.90
50947;DHT22;36955;47.416;7.716;2022-09-13T05:11:47;18.80;99.90
50947;DHT22;36955;47.416;7.716;2022-09-13T05:14:13;18.60;99.90
50947;DHT22;36955;47.416;7.716;2022-09-13T05:16:39;18.50;99.90
50947;DHT22;36955;47.416;7.716;2022-09-13T05:19:06;18.40;99.90
50947;DHT22;36955;47.416;7.716;2022-09-13T05:21:32;18.40;99.90
50947;DHT22;36955;47.416;7.716;2022-09-13T05:23:58;18.40;99.90
50947;DHT22;36955;47.416;7.716;2022-09-13T05:26:27;18.40;99.90
50947;DHT22;36955;47.416;7.716;2022-09-13T05:28:54;18.30;99.90
50947;DHT22;36955;47.416;7.716;2022-09-13T05:31:25;18.30;99.90
50947;DHT22;36955;47.416;7.716;2022-09-13T05:33:57;18.40;99.90
50947;DHT22;36955;47.416;7.716;2022-09-13T05:36:24;18.50;99.90
50947;DHT22;36955;47.416;7.716;2022-09-13T05:38:52;18.60;99.90
50947;DHT22;36955;47.416;7.716;2022-09-13T05:41:18;18.60;99.90
50947;DHT22;36955;47.416;7.716;2022-09-13T05:43:44;18.50;99.90
50947;DHT22;36955;47.416;7.716;2022-09-13T05:46:12;18.50;99.90
50947;DHT22;36955;47.416;7.716;2022-09-13T05:48:39;18.40;99.90
50947;DHT22;36955;47.416;7.716;2022-09-13T05:51:13;18.40;99.90
50947;DHT22;36955;47.416;7.716;2022-09-13T05:53:42;18.30;99.90
50947;DHT22;36955;47.416;7.716;2022-09-13T05:56:13;18.30;99.90
50947;DHT22;36955;47.416;7.716;2022-09-13T05:58:42;18.30;99.90
50947;DHT22;36955;47.416;7.716;2022-09-13T06:01:09;18.30;99.90
50947;DHT22;36955;47.416;7.716;2022-09-13T06:03:36;18.20;99.90
50947;DHT22;36955;47.416;7.716;2022-09-13T06:06:04;18.20;99.90
50947;DHT22;36955;47.416;7.716;2022-09-13T06:08:32;18.20;99.90
50947;DHT22;36955;47.416;7.716;2022-09-13T06:13:24;18.20;99.90
50947;DHT22;36955;47.416;7.716;2022-09-13T06:15:52;18.20;99.90
50947;DHT22;36955;47.416;7.716;2022-09-13T06:18:19;18.30;99.90
50947;DHT22;36955;47.416;7.716;2022-09-13T06:20:46;18.40;99.90
50947;DHT22;36955;47.416;7.716;2022-09-13T06:23:13;18.40;99.90
50947;DHT22;36955;47.416;7.716;2022-09-13T06:25:40;18.50;99.90
50947;DHT22;36955;47.416;7.716;2022-09-13T06:28:06;18.60;99.90
50947;DHT22;36955;47.416;7.716;2022-09-13T06:30:32;18.80;99.90
50947;DHT22;36955;47.416;7.716;2022-09-13T06:32:58;18.90;99.90
50947;DHT22;36955;47.416;7.716;2022-09-13T06:35:25;19.00;99.90
50947;DHT22;36955;47.416;7.716;2022-09-13T06:37:54;19.10;99.90
50947;DHT22;36955;47.416;7.716;2022-09-13T06:40:20;19.30;99.90
50947;DHT22;36955;47.416;7.716;2022-09-13T06:42:46;19.40;99.90
50947;DHT22;36955;47.416;7.716;2022-09-13T06:45:12;19.50;99.90
50947;DHT22;36955;47.416;7.716;2022-09-13T06:47:38;19.60;99.90
50947;DHT22;36955;47.416;7.716;2022-09-13T06:50:05;19.70;99.90
50947;DHT22;36955;47.416;7.716;2022-09-13T06:52:31;19.80;99.90
50947;DHT22;36955;47.416;7.716;2022-09-13T06:54:57;19.90;99.90
50947;DHT22;36955;47.416;7.716;2022-09-13T06:57:23;20.10;99.90
50947;DHT22;36955;47.416;7.716;2022-09-13T06:59:49;20.10;99.90
50947;DHT22;36955;47.416;7.716;2022-09-13T07:02:15;20.20;99.90
50947;DHT22;36955;47.416;7.716;2022-09-13T07:04:41;20.30;99.90
50947;DHT22;36955;47.416;7.716;2022-09-13T07:07:07;20.40;99.90
50947;DHT22;36955;47.416;7.716;2022-09-13T07:09:33;20.50;99.90
50947;DHT22;36955;47.416;7.716;2022-09-13T07:11:59;20.60;99.90
50947;DHT22;36955;47.416;7.716;2022-09-13T07:14:27;20.70;99.90
50947;DHT22;36955;47.416;7.716;2022-09-13T07:16:54;20.80;99.90
50947;DHT22;36955;47.416;7.716;2022-09-13T07:19:29;21.00;99.90
50947;DHT22;36955;47.416;7.716;2022-09-13T07:21:56;21.00;99.90
50947;DHT22;36955;47.416;7.716;2022-09-13T07:24:23;21.20;99.90
50947;DHT22;36955;47.416;7.716;2022-09-13T07:26:49;21.20;99.90
50947;DHT22;36955;47.416;7.716;2022-09-13T07:29:18;21.30;99.90
50947;DHT22;36955;47.416;7.716;2022-09-13T07:31:47;21.30;99.90
50947;DHT22;36955;47.416;7.716;2022-09-13T07:34:16;21.40;99.90
50947;DHT22;36955;47.416;7.716;2022-09-13T07:36:42;21.50;99.90
50947;DHT22;36955;47.416;7.716;2022-09-13T07:39:09;21.60;99.90
50947;DHT22;36955;47.416;7.716;2022-09-13T07:41:35;21.60;99.90
50947;DHT22;36955;47.416;7.716;2022-09-13T07:44:02;21.60;99.90
50947;DHT22;36955;47.416;7.716;2022-09-13T07:46:30;21.60;99.90
50947;DHT22;36955;47.416;7.716;2022-09-13T07:48:57;21.60;99.90
50947;DHT22;36955;47.416;7.716;2022-09-13T07:51:26;21.60;99.90
50947;DHT22;36955;47.416;7.716;2022-09-13T07:53:57;21.70;99.90
50947;DHT22;36955;47.416;7.716;2022-09-13T07:56:25;21.80;99.90
50947;DHT22;36955;47.416;7.716;2022-09-13T07:58:52;21.90;99.90
50947;DHT22;36955;47.416;7.716;2022-09-13T08:03:54;21.90;99.90
50947;DHT22;36955;47.416;7.716;2022-09-13T08:06:21;21.90;99.90
50947;DHT22;36955;47.416;7.716;2022-09-13T08:08:47;22.00;99.90
50947;DHT22;36955;47.416;7.716;2022-09-13T08:11:17;22.10;99.90
50947;DHT22;36955;47.416;7.716;2022-09-13T08:13:44;22.20;99.90
50947;DHT22;36955;47.416;7.716;2022-09-13T08:16:10;22.20;99.90
50947;DHT22;36955;47.416;7.716;2022-09-13T08:18:37;22.20;99.90
50947;DHT22;36955;47.416;7.716;2022-09-13T08:21:03;22.10;99.90
50947;DHT22;36955;47.416;7.716;2022-09-13T08:23:29;22.10;99.90
50947;DHT22;36955;47.416;7.716;2022-09-13T08:26:00;22.10;99.90
50947;DHT22;36955;47.416;7.716;2022-09-13T08:28:26;22.00;99.90
50947;DHT22;36955;47.416;7.716;2022-09-13T08:30:52;22.00;99.90
50947;DHT22;36955;47.416;7.716;2022-09-13T08:33:18;22.00;99.90
50947;DHT22;36955;47.416;7.716;2022-09-13T08:35:51;22.10;99.90
50947;DHT22;36955;47.416;7.716;2022-09-13T08:38:17;22.20;99.90
50947;DHT22;36955;47.416;7.716;2022-09-13T08:40:55;22.30;99.90
50947;DHT22;36955;47.416;7.716;2022-09-13T08:46:32;22.50;99.90
50947;DHT22;36955;47.416;7.716;2022-09-13T08:49:06;22.50;99.90
50947;DHT22;36955;47.416;7.716;2022-09-13T08:51:46;22.60;99.90
50947;DHT22;36955;47.416;7.716;2022-09-13T08:54:16;22.60;99.90
50947;DHT22;36955;47.416;7.716;2022-09-13T08:57:02;22.70;99.90
50947;DHT22;36955;47.416;7.716;2022-09-13T09:05:02;22.90;99.90
50947;DHT22;36955;47.416;7.716;2022-09-13T09:10:36;22.90;99.90
50947;DHT22;36955;47.416;7.716;2022-09-13T09:13:08;22.80;99.90
50947;DHT22;36955;47.416;7.716;2022-09-13T09:15:42;22.80;99.90
50947;DHT22;36955;47.416;7.716;2022-09-13T09:18:19;22.80;99.90
50947;DHT22;36955;47.416;7.716;2022-09-13T09:20:51;22.80;99.90
50947;DHT22;36955;47.416;7.716;2022-09-13T09:23:20;22.80;99.90
50947;DHT22;36955;47.416;7.716;2022-09-13T09:25:50;22.80;99.90
50947;DHT22;36955;47.416;7.716;2022-09-13T09:28:17;22.80;99.90
50947;DHT22;36955;47.416;7.716;2022-09-13T09:31:08;22.90;99.90
50947;DHT22;36955;47.416;7.716;2022-09-13T09:36:14;23.00;99.90
50947;DHT22;36955;47.416;7.716;2022-09-13T09:38:42;23.10;99.90
50947;DHT22;36955;47.416;7.716;2022-09-13T09:41:29;23.20;99.90
50947;DHT22;36955;47.416;7.716;2022-09-13T09:44:21;23.30;99.90
50947;DHT22;36955;47.416;7.716;2022-09-13T09:47:02;23.40;99.90
50947;DHT22;36955;47.416;7.716;2022-09-13T09:49:34;23.50;99.90
50947;DHT22;36955;47.416;7.716;2022-09-13T09:52:03;23.60;99.90
50947;DHT22;36955;47.416;7.716;2022-09-13T09:54:31;23.80;99.90
50947;DHT22;36955;47.416;7.716;2022-09-13T09:56:57;23.90;99.90
50947;DHT22;36955;47.416;7.716;2022-09-13T09:59:26;24.00;99.90
50947;DHT22;36955;47.416;7.716;2022-09-13T10:01:52;24.00;99.90
50947;DHT22;36955;47.416;7.716;2022-09-13T10:04:20;24.00;99.90
50947;DHT22;36955;47.416;7.716;2022-09-13T10:06:48;24.10;99.90
50947;DHT22;36955;47.416;7.716;2022-09-13T10:09:21;24.10;99.90
50947;DHT22;36955;47.416;7.716;2022-09-13T10:11:55;24.10;99.90
50947;DHT22;36955;47.416;7.716;2022-09-13T10:22:37;24.30;99.90
50947;DHT22;36955;47.416;7.716;2022-09-13T10:25:25;24.30;99.90
50947;DHT22;36955;47.416;7.716;2022-09-13T10:27:57;24.40;99.90
50947;DHT22;36955;47.416;7.716;2022-09-13T10:30:36;24.50;99.90
50947;DHT22;36955;47.416;7.716;2022-09-13T10:33:05;24.60;99.90
50947;DHT22;36955;47.416;7.716;2022-09-13T10:35:32;24.60;99.90
50947;DHT22;36955;47.416;7.716;2022-09-13T10:37:58;24.70;99.90
50947;DHT22;36955;47.416;7.716;2022-09-13T10:40:30;24.80;99.90
50947;DHT22;36955;47.416;7.716;2022-09-13T10:42:58;24.80;99.90
50947;DHT22;36955;47.416;7.716;2022-09-13T10:45:26;24.90;99.90
50947;DHT22;36955;47.416;7.716;2022-09-13T10:47:58;25.00;99.90
50947;DHT22;36955;47.416;7.716;2022-09-13T10:50:29;25.00;99.90
50947;DHT22;36955;47.416;7.716;2022-09-13T10:52:57;25.10;99.90
50947;DHT22;36955;47.416;7.716;2022-09-13T10:55:33;25.20;99.90
50947;DHT22;36955;47.416;7.716;2022-09-13T11:06:56;25.40;99.90
50947;DHT22;36955;47.416;7.716;2022-09-13T11:10:00;25.40;99.90
50947;DHT22;36955;47.416;7.716;2022-09-13T11:12:33;25.60;99.90
50947;DHT22;36955;47.416;7.716;2022-09-13T11:29:14;25.90;99.90
50947;DHT22;36955;47.416;7.716;2022-09-13T11:37:43;25.70;99.90
50947;DHT22;36955;47.416;7.716;2022-09-13T11:43:20;25.80;99.90
50947;DHT22;36955;47.416;7.716;2022-09-13T11:51:36;25.70;99.90
50947;DHT22;36955;47.416;7.716;2022-09-13T11:56:41;25.80;99.90
50947;DHT22;36955;47.416;7.716;2022-09-13T11:59:41;25.80;99.90
50947;DHT22;36955;47.416;7.716;2022-09-13T12:02:28;25.80;99.90
50947;DHT22;36955;47.416;7.716;2022-09-13T12:05:09;25.80;99.90
50947;DHT22;36955;47.416;7.716;2022-09-13T12:07:42;25.80;99.90
50947;DHT22;36955;47.416;7.716;2022-09-13T12:10:28;25.70;99.90
50947;DHT22;36955;47.416;7.716;2022-09-13T12:12:57;25.60;99.90
50947;DHT22;36955;47.416;7.716;2022-09-13T12:18:08;25.80;99.90
50947;DHT22;36955;47.416;7.716;2022-09-13T12:20:42;25.90;99.90
50947;DHT22;36955;47.416;7.716;2022-09-13T12:23:42;25.90;99.90
50947;DHT22;36955;47.416;7.716;2022-09-13T12:26:25;26.00;99.90
50947;DHT22;36955;47.416;7.716;2022-09-13T12:28:58;26.00;99.90
50947;DHT22;36955;47.416;7.716;2022-09-13T12:31:28;26.00;99.90
50947;DHT22;36955;47.416;7.716;2022-09-13T12:33:55;26.10;99.90
50947;DHT22;36955;47.416;7.716;2022-09-13T12:44:56;26.10;99.90
50947;DHT22;36955;47.416;7.716;2022-09-13T12:58:39;26.00;99.90
50947;DHT22;36955;47.416;7.716;2022-09-13T13:03:57;26.20;99.90
50947;DHT22;36955;47.416;7.716;2022-09-13T13:06:34;26.40;99.90
50947;DHT22;36955;47.416;7.716;2022-09-13T13:09:39;26.50;99.90
50947;DHT22;36955;47.416;7.716;2022-09-13T13:14:54;26.50;99.90
50947;DHT22;36955;47.416;7.716;2022-09-13T13:26:10;26.20;99.90
50947;DHT22;36955;47.416;7.716;2022-09-13T13:33:47;26.10;99.90
50947;DHT22;36955;47.416;7.716;2022-09-13T13:39:31;26.20;99.90
50947;DHT22;36955;47.416;7.716;2022-09-13T13:57:39;26.30;99.90
50947;DHT22;36955;47.416;7.716;2022-09-13T14:02:41;26.30;99.90
50947;DHT22;36955;47.416;7.716;2022-09-13T14:05:39;26.40;99.90
50947;DHT22;36955;47.416;7.716;2022-09-13T14:08:35;26.30;99.90
50947;DHT22;36955;47.416;7.716;2022-09-13T14:11:13;26.50;99.90
50947;DHT22;36955;47.416;7.716;2022-09-13T14:19:28;26.60;99.90
50947;DHT22;36955;47.416;7.716;2022-09-13T14:22:05;26.60;99.90
50947;DHT22;36955;47.416;7.716;2022-09-13T14:24:38;26.60;99.90
50947;DHT22;36955;47.416;7.716;2022-09-13T14:27:05;26.70;99.90
50947;DHT22;36955;47.416;7.716;2022-09-13T14:29:31;26.60;99.90
50947;DHT22;36955;47.416;7.716;2022-09-13T14:32:15;26.70;99.90
50947;DHT22;36955;47.416;7.716;2022-09-13T14:35:00;26.70;99.90
50947;DHT22;36955;47.416;7.716;2022-09-13T14:37:32;26.70;99.90
50947;DHT22;36955;47.416;7.716;2022-09-13T14:40:05;26.50;99.90
50947;DHT22;36955;47.416;7.716;2022-09-13T14:42:40;26.40;99.90
50947;DHT22;36955;47.416;7.716;2022-09-13T14:45:12;26.30;99.90
50947;DHT22;36955;47.416;7.716;2022-09-13T14:50:17;26.00;99.90
50947;DHT22;36955;47.416;7.716;2022-09-13T14:55:17;25.80;99.90
50947;DHT22;36955;47.416;7.716;2022-09-13T14:57:54;25.70;99.90
50947;DHT22;36955;47.416;7.716;2022-09-13T15:00:22;25.70;99.90
50947;DHT22;36955;47.416;7.716;2022-09-13T15:05:18;25.60;99.90
50947;DHT22;36955;47.416;7.716;2022-09-13T15:07:45;25.60;99.90
50947;DHT22;36955;47.416;7.716;2022-09-13T15:13:23;25.40;99.90
50947;DHT22;36955;47.416;7.716;2022-09-13T15:21:18;25.40;99.90
50947;DHT22;36955;47.416;7.716;2022-09-13T15:23:50;25.50;99.90
50947;DHT22;36955;47.416;7.716;2022-09-13T15:26:23;25.70;99.90
50947;DHT22;36955;47.416;7.716;2022-09-13T15:28:56;25.90;99.90
50947;DHT22;36955;47.416;7.716;2022-09-13T15:31:30;26.10;99.90
50947;DHT22;36955;47.416;7.716;2022-09-13T15:36:45;26.40;99.90
50947;DHT22;36955;47.416;7.716;2022-09-13T15:39:18;26.50;99.90
50947;DHT22;36955;47.416;7.716;2022-09-13T15:41:58;26.60;99.90
50947;DHT22;36955;47.416;7.716;2022-09-13T15:44:27;26.70;99.90
50947;DHT22;36955;47.416;7.716;2022-09-13T15:46:56;26.70;99.90
50947;DHT22;36955;47.416;7.716;2022-09-13T15:49:26;26.60;99.90
50947;DHT22;36955;47.416;7.716;2022-09-13T15:51:57;26.50;99.90
50947;DHT22;36955;47.416;7.716;2022-09-13T15:54:35;26.30;99.90
50947;DHT22;36955;47.416;7.716;2022-09-13T15:57:06;26.10;99.90
50947;DHT22;36955;47.416;7.716;2022-09-13T15:59:32;26.00;99.90
50947;DHT22;36955;47.416;7.716;2022-09-13T16:01:59;25.90;99.90
50947;DHT22;36955;47.416;7.716;2022-09-13T16:04:26;25.80;99.90
50947;DHT22;36955;47.416;7.716;2022-09-13T16:06:52;25.70;99.90
50947;DHT22;36955;47.416;7.716;2022-09-13T16:09:23;25.50;99.90
50947;DHT22;36955;47.416;7.716;2022-09-13T16:11:50;25.30;99.90
50947;DHT22;36955;47.416;7.716;2022-09-13T16:14:17;25.10;99.90
50947;DHT22;36955;47.416;7.716;2022-09-13T16:16:44;25.00;99.90
50947;DHT22;36955;47.416;7.716;2022-09-13T16:19:16;24.80;99.90
50947;DHT22;36955;47.416;7.716;2022-09-13T16:21:42;24.70;99.90
50947;DHT22;36955;47.416;7.716;2022-09-13T16:24:08;24.70;99.90
50947;DHT22;36955;47.416;7.716;2022-09-13T16:26:34;24.70;99.90
50947;DHT22;36955;47.416;7.716;2022-09-13T16:29:00;24.80;99.90
50947;DHT22;36955;47.416;7.716;2022-09-13T16:31:26;24.80;99.90
50947;DHT22;36955;47.416;7.716;2022-09-13T16:33:52;24.80;99.90
50947;DHT22;36955;47.416;7.716;2022-09-13T16:36:18;24.90;99.90
50947;DHT22;36955;47.416;7.716;2022-09-13T16:38:44;24.90;99.90
50947;DHT22;36955;47.416;7.716;2022-09-13T16:41:10;24.90;99.90
50947;DHT22;36955;47.416;7.716;2022-09-13T16:43:36;24.90;99.90
50947;DHT22;36955;47.416;7.716;2022-09-13T16:46:07;24.90;99.90
50947;DHT22;36955;47.416;7.716;2022-09-13T16:48:34;24.90;99.90
50947;DHT22;36955;47.416;7.716;2022-09-13T16:51:05;24.80;99.90
50947;DHT22;36955;47.416;7.716;2022-09-13T16:53:37;24.70;99.90
50947;DHT22;36955;47.416;7.716;2022-09-13T16:56:08;24.60;99.90
50947;DHT22;36955;47.416;7.716;2022-09-13T16:58:41;24.60;99.90
50947;DHT22;36955;47.416;7.716;2022-09-13T17:01:09;24.50;99.90
50947;DHT22;36955;47.416;7.716;2022-09-13T17:03:37;24.50;99.90
50947;DHT22;36955;47.416;7.716;2022-09-13T17:06:06;24.40;99.90
50947;DHT22;36955;47.416;7.716;2022-09-13T17:08:35;24.40;99.90
50947;DHT22;36955;47.416;7.716;2022-09-13T17:11:09;24.30;99.90
50947;DHT22;36955;47.416;7.716;2022-09-13T17:13:37;24.30;99.90
50947;DHT22;36955;47.416;7.716;2022-09-13T17:16:05;24.20;99.90
50947;DHT22;36955;47.416;7.716;2022-09-13T17:18:32;24.10;99.90
50947;DHT22;36955;47.416;7.716;2022-09-13T17:20:59;24.10;99.90
50947;DHT22;36955;47.416;7.716;2022-09-13T17:23:25;24.10;99.90
50947;DHT22;36955;47.416;7.716;2022-09-13T17:25:51;24.10;99.90
50947;DHT22;36955;47.416;7.716;2022-09-13T17:28:18;24.00;99.90
50947;DHT22;36955;47.416;7.716;2022-09-13T17:30:45;23.90;99.90
50947;DHT22;36955;47.416;7.716;2022-09-13T17:33:12;23.90;99.90
50947;DHT22;36955;47.416;7.716;2022-09-13T17:35:38;23.80;99.90
50947;DHT22;36955;47.416;7.716;2022-09-13T17:38:04;23.70;99.90
50947;DHT22;36955;47.416;7.716;2022-09-13T17:40:31;23.60;99.90
50947;DHT22;36955;47.416;7.716;2022-09-13T17:42:57;23.40;99.90
50947;DHT22;36955;47.416;7.716;2022-09-13T17:45:24;23.30;99.90
50947;DHT22;36955;47.416;7.716;2022-09-13T17:47:54;23.20;99.90
50947;DHT22;36955;47.416;7.716;2022-09-13T17:50:20;23.10;99.90
50947;DHT22;36955;47.416;7.716;2022-09-13T17:52:46;23.10;99.90
50947;DHT22;36955;47.416;7.716;2022-09-13T17:55:12;23.00;99.90
50947;DHT22;36955;47.416;7.716;2022-09-13T17:57:38;22.90;99.90
50947;DHT22;36955;47.416;7.716;2022-09-13T18:00:06;22.90;99.90
50947;DHT22;36955;47.416;7.716;2022-09-13T18:02:32;22.80;99.90
50947;DHT22;36955;47.416;7.716;2022-09-13T18:04:58;22.80;99.90
50947;DHT22;36955;47.416;7.716;2022-09-13T18:07:24;22.70;99.90
50947;DHT22;36955;47.416;7.716;2022-09-13T18:09:50;22.70;99.90
50947;DHT22;36955;47.416;7.716;2022-09-13T18:12:16;22.70;99.90
50947;DHT22;36955;47.416;7.716;2022-09-13T18:14:42;22.70;99.90
50947;DHT22;36955;47.416;7.716;2022-09-13T18:17:08;22.70;99.90
50947;DHT22;36955;47.416;7.716;2022-09-13T18:19:34;22.60;99.90
50947;DHT22;36955;47.416;7.716;2022-09-13T18:22:01;22.60;99.90
50947;DHT22;36955;47.416;7.716;2022-09-13T18:24:27;22.60;99.90
50947;DHT22;36955;47.416;7.716;2022-09-13T18:26:53;22.60;99.90
50947;DHT22;36955;47.416;7.716;2022-09-13T18:29:19;22.60;99.90
50947;DHT22;36955;47.416;7.716;2022-09-13T18:31:45;22.60;99.90
50947;DHT22;36955;47.416;7.716;2022-09-13T18:34:13;22.60;99.90
50947;DHT22;36955;47.416;7.716;2022-09-13T18:36:39;22.60;99.90
50947;DHT22;36955;47.416;7.716;2022-09-13T18:39:08;22.60;99.90
50947;DHT22;36955;47.416;7.716;2022-09-13T18:41:38;22.60;99.90
50947;DHT22;36955;47.416;7.716;2022-09-13T18:44:04;22.60;99.90
50947;DHT22;36955;47.416;7.716;2022-09-13T18:46:32;22.60;99.90
50947;DHT22;36955;47.416;7.716;2022-09-13T18:48:58;22.60;99.90
50947;DHT22;36955;47.416;7.716;2022-09-13T18:53:54;22.40;99.90
50947;DHT22;36955;47.416;7.716;2022-09-13T18:56:21;22.40;99.90
50947;DHT22;36955;47.416;7.716;2022-09-13T18:58:47;22.40;99.90
50947;DHT22;36955;47.416;7.716;2022-09-13T19:01:19;22.30;99.90
50947;DHT22;36955;47.416;7.716;2022-09-13T19:03:54;22.30;99.90
50947;DHT22;36955;47.416;7.716;2022-09-13T19:06:25;22.30;99.90
50947;DHT22;36955;47.416;7.716;2022-09-13T19:08:53;22.30;99.90
50947;DHT22;36955;47.416;7.716;2022-09-13T19:11:21;22.20;99.90
50947;DHT22;36955;47.416;7.716;2022-09-13T19:13:47;22.20;99.90
50947;DHT22;36955;47.416;7.716;2022-09-13T19:16:15;22.30;99.90
50947;DHT22;36955;47.416;7.716;2022-09-13T19:18:42;22.40;99.90
50947;DHT22;36955;47.416;7.716;2022-09-13T19:21:23;22.40;99.90
50947;DHT22;36955;47.416;7.716;2022-09-13T19:23:50;22.50;99.90
50947;DHT22;36955;47.416;7.716;2022-09-13T19:26:22;22.60;99.90
50947;DHT22;36955;47.416;7.716;2022-09-13T19:28:50;22.70;99.90
50947;DHT22;36955;47.416;7.716;2022-09-13T19:31:18;22.70;99.90